Kuujjuaq Airport

Airport
ICAO code: 
CYVP
Summary
ICAO Region: 
NAM
Territory: 
Location: 
Kuujjuaq, Quebec,
Coordinates: 
Aerial View: 
58° 6' 10.786" N, 68° 25' 7.82" W
Airport BS: 
Non Avian Wildlife Hazards to Aircraft
Airport CFIT: 
Altimeter Temperature Error Correction
Airport GND: 
Aircraft Ground De/Anti Icing
Airport RE: 
Crosswind Landings
Metar
Observation
CYVP 210400Z 23012G18KT 15SM -SN FEW025 FEW050 BKN070 OVC130 M25/M30 A2979 RMK SC1SC1AS5AC1 SLP097
Station
Kuujjuaq, Que.
Date/Time
2022-01-21 04:00:00
Wind direction
230°
Wind speed
12 kts
Lowest cloud amount
few clouds
Temperature
-25°C
Dew point
-30°C
Humidity
62%
Weather condition
light snow

Description

Airport serving Kuujjuaq, Quebec.

Climatology

Tundra climate (Köppen climate classification ET) - warmest month has an average temperature of 0 - 10 degrees C.

Runways

Designator Length Width Surface Rops
13/31 1524 46 GVL Yes/Yes
7/25 1829 46 ASP Yes/Yes
Airport map: 
Aerial View: 

SKYbrary Partners:

Safety knowledge contributed by: